Time;durP1;ratioP1;P1;durP2;ratioP2;P2;SDS_P1;SDS_P2;PMS_P1;PMS_P2;Temp;Humidity;BMP_temperature;BMP_pressure;BME280_temperature;BME280_humidity;BME280_pressure;Samples;Min_cycle;Max_cycle;Signal;HPM_P1;HPM_P2
2022/04/16 00:01:41;;;;;;;;;20.00;18.33;;;;;15.66;54.94;102046.00;4962280;28;45380;-59
2022/04/16 00:04:08;;;;;;;;;20.33;16.67;;;;;15.62;55.38;102050.66;4963186;28;45603;-57
2022/04/16 00:06:33;;;;;;;;;24.50;19.00;;;;;15.57;55.05;102052.69;4963396;28;45308;-56
2022/04/16 00:08:58;;;;;;;;;22.33;18.33;;;;;15.57;55.42;102047.34;4964785;28;45462;-57
2022/04/16 00:11:24;;;;;;;;;22.33;18.00;;;;;15.57;55.49;102047.34;4974325;27;45446;-56
2022/04/16 00:13:50;;;;;;;;;21.33;20.00;;;;;15.55;55.68;102049.25;4968578;28;45434;-57
2022/04/16 00:16:17;;;;;;;;;22.33;20.00;;;;;15.46;55.43;102039.84;4982948;28;48138;-56
2022/04/16 00:18:44;;;;;;;;;19.00;17.67;;;;;15.48;55.93;102042.47;4961341;28;46055;-57
2022/04/16 00:21:10;;;;;;;;;19.33;16.00;;;;;15.43;55.79;102040.03;4960787;28;45358;-55
2022/04/16 00:23:37;;;;;;;;;20.00;18.67;;;;;15.33;56.35;102028.91;4969263;28;45553;-55
2022/04/16 00:26:02;;;;;;;;;18.33;16.67;;;;;15.38;56.35;102038.56;4961094;28;46128;-57
2022/04/16 00:28:28;;;;;;;;;23.33;21.00;;;;;15.28;56.43;102036.34;4971361;28;45609;-56
2022/04/16 00:30:56;;;;;;;;;20.00;19.67;;;;;15.28;56.82;102031.00;4959132;28;45504;-56
2022/04/16 00:33:22;;;;;;;;;24.00;19.67;;;;;15.31;56.30;102030.81;4954727;28;45330;-57
2022/04/16 00:35:51;;;;;;;;;17.00;16.00;;;;;15.29;56.82;102037.22;4959436;28;47027;-57
2022/04/16 00:38:17;;;;;;;;;20.67;18.00;;;;;15.27;56.75;102042.66;4970638;28;45480;-55
2022/04/16 00:40:43;;;;;;;;;22.67;19.00;;;;;15.18;56.89;102020.84;4966403;28;45427;-57
2022/04/16 00:43:19;;;;;;;;;22.33;18.00;;;;;15.22;57.51;102031.31;4946222;28;45767;-55
2022/04/16 00:45:45;;;;;;;;;20.33;19.00;;;;;15.11;57.08;102016.75;5036108;27;46442;-56
2022/04/16 00:48:10;;;;;;;;;23.00;20.00;;;;;15.17;56.94;102025.31;4956105;28;45331;-60
2022/04/16 00:50:35;;;;;;;;;18.00;18.00;;;;;15.14;57.02;102022.81;4965666;28;45501;-56
2022/04/16 00:53:02;;;;;;;;;22.33;18.67;;;;;15.12;57.18;102019.34;4964755;28;45390;-56
2022/04/16 00:55:27;;;;;;;;;21.00;17.67;;;;;15.10;57.07;102023.91;4953911;28;47260;-56
2022/04/16 00:57:54;;;;;;;;;21.33;18.00;;;;;15.07;57.41;102020.53;4955762;28;45492;-57
2022/04/16 01:00:20;;;;;;;;;19.33;17.00;;;;;15.05;56.74;102018.78;4955637;28;47383;-55
2022/04/16 01:02:46;;;;;;;;;20.00;18.00;;;;;15.04;57.30;102018.88;4961825;28;45630;-56
2022/04/16 01:05:12;;;;;;;;;16.67;14.67;;;;;15.07;57.34;102025.88;4962330;28;45405;-57
2022/04/16 01:07:54;;;;;;;;;20.33;18.33;;;;;14.98;57.30;102014.72;4957790;28;45288;-57
2022/04/16 01:10:21;;;;;;;;;18.67;17.67;;;;;14.97;57.66;102017.44;4966324;27;45349;-56
2022/04/16 01:12:46;;;;;;;;;18.67;18.67;;;;;15.00;57.63;102020.00;4973580;28;45402;-56
2022/04/16 01:15:13;;;;;;;;;22.00;18.00;;;;;15.01;57.36;102016.38;4993885;28;46639;-57
2022/04/16 01:17:39;;;;;;;;;25.33;22.67;;;;;15.03;57.15;102017.16;4963485;27;45535;-57
2022/04/16 01:20:05;;;;;;;;;15.33;15.33;;;;;15.02;57.37;102018.09;4966790;28;45577;-56
2022/04/16 01:22:31;;;;;;;;;19.67;19.67;;;;;14.88;57.98;102015.28;4956809;28;45523;-57
2022/04/16 01:24:56;;;;;;;;;25.67;22.00;;;;;14.73;58.31;102009.75;4970252;28;46860;-55
2022/04/16 01:27:21;;;;;;;;;23.75;21.00;;;;;14.74;57.47;102014.16;4968546;28;45349;-57
2022/04/16 01:29:48;;;;;;;;;30.25;25.50;;;;;14.73;58.08;102017.78;4960766;28;45347;-57
2022/04/16 01:32:13;;;;;;;;;27.75;25.00;;;;;14.66;58.74;102027.06;4962503;28;45446;-57
2022/04/16 01:34:40;;;;;;;;;23.75;23.75;;;;;14.58;59.12;102021.22;4973444;28;45461;-56
2022/04/16 01:37:05;;;;;;;;;31.00;25.33;;;;;14.54;58.97;102019.63;4986720;28;45298;-56
2022/04/16 01:39:31;;;;;;;;;21.00;20.00;;;;;14.52;59.16;102026.88;4963547;28;45307;-60
2022/04/16 01:41:57;;;;;;;;;23.25;22.75;;;;;14.57;58.63;102027.50;4958083;28;45510;-55
2022/04/16 01:44:23;;;;;;;;;25.50;21.75;;;;;14.55;59.05;102029.41;4972534;28;45453;-57
2022/04/16 01:46:48;;;;;;;;;18.33;17.00;;;;;14.47;58.94;102002.16;4971020;28;45515;-56
2022/04/16 01:49:14;;;;;;;;;25.00;22.75;;;;;14.52;59.07;102016.19;4957045;27;45455;-57
2022/04/16 01:51:39;;;;;;;;;18.25;18.25;;;;;14.48;59.06;102019.97;4967828;28;45422;-57
2022/04/16 01:54:04;;;;;;;;;20.00;19.00;;;;;14.33;59.09;102015.34;4956995;28;45738;-56
2022/04/16 01:56:30;;;;;;;;;25.25;21.50;;;;;14.34;59.57;102020.59;4954548;28;45525;-55
2022/04/16 01:58:55;;;;;;;;;26.75;19.75;;;;;14.27;60.32;102029.88;4966565;28;45382;-56
2022/04/16 02:01:22;;;;;;;;;23.75;23.25;;;;;14.15;60.91;102025.09;4969963;28;45600;-56
2022/04/16 02:03:51;;;;;;;;;23.00;23.00;;;;;14.12;60.42;102034.16;4958488;28;45682;-56
2022/04/16 02:06:17;;;;;;;;;21.50;21.50;;;;;14.20;60.11;102044.50;4955105;28;45374;-57
2022/04/16 02:08:44;;;;;;;;;24.00;22.67;;;;;14.18;59.87;102025.81;4985631;28;45491;-56
2022/04/16 02:11:09;;;;;;;;;23.33;22.33;;;;;14.23;60.40;102036.31;4986340;27;45631;-59
2022/04/16 02:13:34;;;;;;;;;29.67;23.00;;;;;14.08;59.75;102008.50;5030995;27;47452;-55
2022/04/16 02:16:00;;;;;;;;;23.25;22.25;;;;;14.15;59.98;102014.41;4958745;28;45528;-57
2022/04/16 02:18:26;;;;;;;;;23.25;19.75;;;;;14.24;59.56;102029.16;4965062;28;45672;-56
2022/04/16 02:20:52;;;;;;;;;30.50;25.00;;;;;14.21;60.12;102029.31;4972188;28;45596;-56
2022/04/16 02:23:17;;;;;;;;;19.00;19.00;;;;;14.25;60.17;102025.53;4964767;28;46163;-57
2022/04/16 02:25:43;;;;;;;;;24.00;21.25;;;;;14.13;59.79;102017.16;4969266;28;45808;-57
2022/04/16 02:28:10;;;;;;;;;22.75;17.75;;;;;14.07;60.11;102030.84;4969644;28;45346;-56
2022/04/16 02:30:37;;;;;;;;;21.50;21.50;;;;;13.97;60.18;102018.84;4975942;28;45594;-54
2022/04/16 02:33:03;;;;;;;;;20.50;18.50;;;;;14.01;60.03;102028.44;4974303;28;45599;-58
2022/04/16 02:35:29;;;;;;;;;24.00;23.50;;;;;13.97;59.92;102015.28;4973150;28;45447;-56
2022/04/16 02:37:55;;;;;;;;;23.00;21.33;;;;;14.02;60.41;102030.16;4961409;28;45481;-56
2022/04/16 02:40:20;;;;;;;;;28.75;22.50;;;;;14.06;60.52;102031.78;4959664;28;45327;-56
2022/04/16 02:42:46;;;;;;;;;19.00;17.75;;;;;14.06;60.75;102041.59;4974829;28;46209;-56
2022/04/16 02:47:58;;;;;;;;;22.33;20.67;;;;;13.94;60.33;102043.06;5022378;28;45409;-57
2022/04/16 02:50:25;;;;;;;;;24.75;22.25;;;;;13.92;61.01;102044.91;4971225;28;45393;-57
2022/04/16 02:52:51;;;;;;;;;23.00;22.25;;;;;13.87;61.01;102036.25;4957605;28;45916;-54
2022/04/16 02:55:17;;;;;;;;;29.00;24.00;;;;;13.83;61.12;102035.53;4959891;28;45738;-56
2022/04/16 02:57:44;;;;;;;;;24.75;21.25;;;;;13.75;60.98;102026.13;4968697;28;45327;-57
2022/04/16 03:00:13;;;;;;;;;22.00;22.00;;;;;13.73;61.79;102033.34;4973752;28;45474;-57
2022/04/16 03:02:39;;;;;;;;;30.25;27.25;;;;;13.65;62.06;102027.47;4962300;28;46070;-56
2022/04/16 03:05:09;;;;;;;;;22.25;21.00;;;;;13.63;61.77;102027.56;4976729;27;45860;-55
2022/04/16 03:07:37;;;;;;;;;33.00;27.25;;;;;13.61;61.95;102020.56;4966410;28;45551;-54
2022/04/16 03:10:04;;;;;;;;;28.00;24.75;;;;;13.58;62.02;102025.09;4965488;28;45564;-56
2022/04/16 03:12:46;;;;;;;;;23.25;20.25;;;;;13.61;61.25;102024.09;4972388;27;47067;-56
2022/04/16 03:17:57;;;;;;;;;26.00;24.25;;;;;13.58;61.74;102025.09;4966137;28;45588;-56
2022/04/16 03:20:22;;;;;;;;;29.00;21.75;;;;;13.53;61.42;102032.44;4974957;28;45448;-53
2022/04/16 03:22:48;;;;;;;;;28.50;25.25;;;;;13.21;62.07;101971.59;4964102;28;45313;-57
2022/04/16 03:25:13;;;;;;;;;32.50;24.75;;;;;13.52;62.02;102035.19;4947549;28;45481;-58
2022/04/16 03:27:39;;;;;;;;;28.00;22.25;;;;;13.52;61.90;102030.72;4956781;28;46083;-55
2022/04/16 03:30:06;;;;;;;;;34.50;29.75;;;;;13.52;61.75;102030.72;4974618;28;45409;-56
2022/04/16 03:32:31;;;;;;;;;28.00;27.00;;;;;13.48;61.85;102030.94;4963200;28;45524;-55
2022/04/16 03:34:57;;;;;;;;;27.00;25.75;;;;;13.37;62.14;102035.88;4979777;28;45320;-56
2022/04/16 03:37:27;;;;;;;;;30.25;25.50;;;;;13.40;62.34;102030.41;4962254;28;45492;-56
2022/04/16 03:39:52;;;;;;;;;26.75;22.00;;;;;13.30;62.72;102035.31;4972601;28;46931;-56
2022/04/16 03:42:18;;;;;;;;;27.75;27.25;;;;;13.23;62.50;102032.03;4966330;28;46198;-56
2022/04/16 03:44:44;;;;;;;;;36.50;28.75;;;;;13.09;62.87;102020.19;4973988;28;45418;-56
2022/04/16 03:47:11;;;;;;;;;29.50;22.50;;;;;13.13;62.61;102024.44;4971006;27;45610;-57
2022/04/16 03:49:37;;;;;;;;;23.50;23.25;;;;;13.15;62.44;102035.94;4974338;28;45326;-56
2022/04/16 03:52:03;;;;;;;;;34.75;29.50;;;;;13.16;62.85;102024.34;4974308;28;47467;-56
2022/04/16 04:00:05;;;;;;;;;23.25;22.25;;;;;13.16;62.26;102027.00;4972442;28;45322;-57
2022/04/16 04:02:33;;;;;;;;;39.75;29.25;;;;;13.21;62.33;102025.88;4961184;28;45495;-55
2022/04/16 04:04:59;;;;;;;;;27.00;23.25;;;;;13.23;62.05;102028.50;4955720;28;45298;-56
2022/04/16 04:07:25;;;;;;;;;32.25;28.25;;;;;13.19;62.02;102027.75;4963546;28;45497;-56
2022/04/16 04:09:51;;;;;;;;;32.75;30.25;;;;;13.19;62.25;102026.91;4966200;28;45549;-56
2022/04/16 04:12:17;;;;;;;;;31.75;28.75;;;;;13.15;62.13;102031.47;4969147;28;47021;-57
2022/04/16 04:14:45;;;;;;;;;28.00;26.25;;;;;13.10;62.51;102037.94;4984853;28;45927;-56
2022/04/16 04:17:11;;;;;;;;;34.75;29.50;;;;;13.09;62.15;102036.22;4971525;28;45417;-55
2022/04/16 04:19:39;;;;;;;;;31.00;27.50;;;;;13.04;62.30;102031.06;4972657;28;45470;-58
2022/04/16 04:22:06;;;;;;;;;35.25;33.25;;;;;13.02;62.79;102038.28;4973397;28;45283;-57
2022/04/16 04:24:32;;;;;;;;;36.25;26.75;;;;;12.95;62.62;102034.13;4965828;28;45474;-57
2022/04/16 04:26:59;;;;;;;;;41.00;31.00;;;;;12.90;63.35;102041.50;4955876;28;45471;-56
2022/04/16 04:29:26;;;;;;;;;30.50;28.00;;;;;12.80;62.84;102027.66;4966001;28;45557;-56
2022/04/16 04:31:52;;;;;;;;;37.00;31.75;;;;;12.83;63.12;102045.34;4974899;28;45492;-57
2022/04/16 04:34:17;;;;;;;;;36.25;29.75;;;;;12.83;63.55;102048.00;4967208;28;45351;-57
2022/04/16 04:36:43;;;;;;;;;39.75;29.25;;;;;12.79;63.23;102043.75;4973762;28;45243;-55
2022/04/16 04:39:08;;;;;;;;;35.25;31.25;;;;;12.77;63.87;102051.81;4984530;28;45393;-56
2022/04/16 04:41:34;;;;;;;;;40.50;32.00;;;;;12.76;63.58;102049.19;5076237;28;46620;-55
2022/04/16 04:43:59;;;;;;;;;28.25;27.50;;;;;12.73;63.63;102050.19;5010680;27;45352;-56
2022/04/16 04:46:25;;;;;;;;;28.00;24.50;;;;;12.76;63.87;102043.84;4964210;28;45510;-56
2022/04/16 04:48:51;;;;;;;;;34.50;31.25;;;;;12.62;63.30;102026.59;4958712;28;45730;-56
2022/04/16 04:51:16;;;;;;;;;35.25;30.25;;;;;12.65;63.78;102038.97;4955417;28;45532;-56
2022/04/16 04:53:41;;;;;;;;;36.00;30.50;;;;;12.69;64.21;102048.59;4962116;28;45348;-56
2022/04/16 04:56:07;;;;;;;;;38.75;31.50;;;;;12.69;64.28;102048.59;4960342;28;45458;-56
2022/04/16 04:58:32;;;;;;;;;31.00;30.25;;;;;12.65;63.94;102033.66;4991774;28;45496;-57
2022/04/16 05:00:58;;;;;;;;;31.25;31.25;;;;;12.69;63.72;102043.25;4956239;28;47826;-57
2022/04/16 05:03:23;;;;;;;;;35.00;30.50;;;;;12.60;64.07;102027.59;4989524;28;45410;-58
2022/04/16 05:05:49;;;;;;;;;41.25;34.50;;;;;12.72;64.16;102052.94;4986300;27;48956;-58
2022/04/16 05:08:14;;;;;;;;;33.50;32.25;;;;;12.65;63.78;102047.00;4968467;27;45578;-57
2022/04/16 05:10:40;;;;;;;;;27.50;26.00;;;;;12.51;64.24;102041.34;4957378;28;45416;-57
2022/04/16 05:13:05;;;;;;;;;33.25;30.00;;;;;12.55;64.16;102056.31;4961370;28;45545;-56
2022/04/16 05:15:31;;;;;;;;;35.50;28.25;;;;;12.47;64.00;102040.59;4956066;28;45323;-57
2022/04/16 05:17:56;;;;;;;;;37.25;32.25;;;;;12.36;64.25;102041.03;5025645;28;45389;-56
2022/04/16 05:20:22;;;;;;;;;41.25;36.00;;;;;12.46;64.39;102070.00;4958516;28;46270;-57
2022/04/16 05:22:48;;;;;;;;;39.75;33.00;;;;;12.40;64.60;102058.66;4955971;28;45722;-58
2022/04/16 05:25:14;;;;;;;;;39.50;34.75;;;;;12.44;64.89;102078.06;4967221;28;45338;-56
2022/04/16 05:27:39;;;;;;;;;36.00;33.25;;;;;12.30;64.56;102065.28;4955166;28;45584;-57
2022/04/16 05:32:34;;;;;;;;;37.25;30.25;;;;;12.17;65.58;102077.38;4971886;28;45491;-57
2022/04/16 05:35:00;;;;;;;;;38.50;36.00;;;;;12.07;65.40;102075.97;4972427;28;45513;-57
2022/04/16 05:37:25;;;;;;;;;40.00;34.00;;;;;12.14;65.54;102087.31;4968959;28;45467;-56
2022/04/16 05:39:50;;;;;;;;;41.00;35.75;;;;;12.15;65.36;102087.25;4959919;28;46206;-56
2022/04/16 05:42:16;;;;;;;;;33.00;32.25;;;;;12.15;64.84;102089.91;4959953;28;46746;-58
2022/04/16 05:44:41;;;;;;;;;40.50;36.00;;;;;12.10;65.11;102081.19;4967863;28;45256;-62
2022/04/16 05:47:07;;;;;;;;;48.75;38.25;;;;;12.09;65.14;102091.00;4962469;28;45212;-57
2022/04/16 05:49:32;;;;;;;;;40.50;36.25;;;;;12.05;65.31;102091.19;4964748;28;45359;-56
2022/04/16 05:51:58;;;;;;;;;45.25;38.00;;;;;12.06;65.60;102096.44;4961338;28;45604;-58
2022/04/16 05:54:24;;;;;;;;;28.75;22.75;;;;;12.07;65.61;102094.66;4969232;28;45431;-58
2022/04/16 05:56:49;;;;;;;;;43.00;38.00;;;;;12.11;65.33;102101.63;4967744;27;45758;-56
2022/04/16 05:59:14;;;;;;;;;38.00;35.00;;;;;12.12;64.99;102100.69;4969602;28;45918;-56
2022/04/16 06:01:41;;;;;;;;;41.50;36.75;;;;;12.05;65.65;102104.50;4971233;28;45668;-56
2022/04/16 06:04:07;;;;;;;;;42.00;36.75;;;;;11.97;65.91;102094.13;4969156;28;45401;-58
2022/04/16 06:06:33;;;;;;;;;43.50;34.00;;;;;12.01;65.10;102110.91;4972375;28;45430;-58
2022/04/16 06:08:58;;;;;;;;;39.50;31.50;;;;;12.05;65.44;102115.19;4974532;28;47656;-57
2022/04/16 06:11:28;;;;;;;;;51.75;41.25;;;;;12.02;65.22;102115.31;4990351;28;45410;-61
2022/04/16 06:13:53;;;;;;;;;39.50;34.75;;;;;12.12;65.47;102116.69;4979518;27;45389;-55
2022/04/16 06:16:19;;;;;;;;;40.25;35.00;;;;;12.17;65.06;102120.03;4971716;28;45379;-54
2022/04/16 06:18:44;;;;;;;;;42.50;37.00;;;;;12.19;64.52;102107.50;4972070;28;47292;-61
2022/04/16 06:21:09;;;;;;;;;38.00;33.75;;;;;12.12;64.70;102116.69;4969252;28;45368;-57
2022/04/16 06:23:35;;;;;;;;;42.00;39.50;;;;;12.17;65.29;102119.19;4972297;28;45669;-56
2022/04/16 06:26:00;;;;;;;;;41.25;38.25;;;;;12.16;65.15;102122.78;4971012;28;45521;-55
2022/04/16 06:28:26;;;;;;;;;36.75;33.00;;;;;12.20;64.39;102130.59;4964044;28;47464;-57
2022/04/16 06:30:51;;;;;;;;;41.50;38.00;;;;;12.19;64.49;102118.19;4969393;28;45726;-58
2022/04/16 06:33:17;;;;;;;;;47.25;36.00;;;;;12.22;64.39;102110.06;4957798;28;45514;-57
2022/04/16 06:35:45;;;;;;;;;43.50;36.50;;;;;12.23;64.55;102125.13;4967674;28;45464;-61
2022/04/16 06:38:11;;;;;;;;;38.25;30.25;;;;;12.22;64.03;102123.41;4973366;28;46294;-60
2022/04/16 06:40:36;;;;;;;;;43.00;32.75;;;;;12.21;64.93;102126.13;4969822;28;45490;-55
2022/04/16 06:43:02;;;;;;;;;39.75;36.00;;;;;12.25;64.04;102128.63;4962862;28;45246;-53
2022/04/16 06:45:27;;;;;;;;;51.00;38.25;;;;;12.29;64.28;102124.91;4968454;28;45516;-55
2022/04/16 06:47:53;;;;;;;;;45.50;39.75;;;;;12.30;63.90;102121.31;4969603;28;47079;-54
2022/04/16 06:50:21;;;;;;;;;47.50;36.00;;;;;12.35;64.22;102124.66;4971159;28;45337;-59
2022/04/16 06:52:46;;;;;;;;;45.00;37.00;;;;;12.35;64.08;102123.78;4973210;28;45427;-57
2022/04/16 06:55:12;;;;;;;;;41.75;36.00;;;;;12.29;64.02;102119.56;4960029;28;45459;-54
2022/04/16 06:57:38;;;;;;;;;47.50;38.25;;;;;12.29;64.02;102118.72;4969314;28;45983;-56
2022/04/16 07:00:05;;;;;;;;;46.75;38.25;;;;;12.33;63.85;102121.19;4972857;28;45445;-55
2022/04/16 07:02:31;;;;;;;;;45.50;40.00;;;;;12.45;63.52;102118.97;4972607;28;45290;-55
2022/04/16 07:04:58;;;;;;;;;45.00;39.00;;;;;12.51;63.52;102118.75;4972986;28;45237;-55
2022/04/16 07:07:23;;;;;;;;;38.75;37.00;;;;;12.49;63.49;102102.75;4971830;28;47035;-54
2022/04/16 07:09:49;;;;;;;;;32.25;29.00;;;;;12.61;62.94;102115.63;4971710;28;45295;-57
2022/04/16 07:12:15;;;;;;;;;39.75;36.75;;;;;12.65;62.91;102111.03;4972202;28;45377;-54
2022/04/16 07:14:41;;;;;;;;;40.00;35.75;;;;;12.75;62.72;102117.72;4974809;28;45469;-56
2022/04/16 07:17:07;;;;;;;;;42.00;36.25;;;;;12.80;62.15;102109.53;5029389;27;46343;-55
2022/04/16 07:19:34;;;;;;;;;42.25;36.00;;;;;12.81;62.33;102112.16;5079005;27;45402;-55
2022/04/16 07:22:00;;;;;;;;;42.00;37.00;;;;;12.84;62.67;102101.34;4984320;27;45363;-55
2022/04/16 07:24:26;;;;;;;;;36.75;33.50;;;;;12.92;62.37;102109.91;4975744;28;45280;-55
2022/04/16 07:26:54;;;;;;;;;33.50;28.75;;;;;12.97;62.25;102113.25;4988717;28;46533;-54
2022/04/16 07:29:24;;;;;;;;;52.00;38.75;;;;;12.97;61.65;102115.91;4975453;28;45246;-55
2022/04/16 07:31:50;;;;;;;;;51.50;39.00;;;;;12.94;62.39;102110.72;4974343;28;45471;-55
2022/04/16 07:34:15;;;;;;;;;41.25;37.25;;;;;12.94;62.24;102109.84;4975539;28;45531;-54
2022/04/16 07:36:42;;;;;;;;;38.00;35.25;;;;;13.06;62.16;102111.13;4975436;28;45277;-56
2022/04/16 07:39:08;;;;;;;;;39.25;36.25;;;;;13.11;61.83;102114.47;4974705;28;45301;-56
2022/04/16 07:41:37;;;;;;;;;52.25;43.25;;;;;13.12;61.63;102117.06;4974781;27;45372;-57
2022/04/16 07:44:05;;;;;;;;;41.75;38.25;;;;;13.17;61.98;102108.88;4976257;28;45376;-55
2022/04/16 07:46:32;;;;;;;;;30.50;27.25;;;;;13.31;60.87;102127.88;4974484;28;47683;-55
2022/04/16 07:48:58;;;;;;;;;40.50;33.75;;;;;13.31;60.63;102111.84;4974344;28;45213;-56
2022/04/16 07:51:27;;;;;;;;;34.75;31.50;;;;;13.43;60.73;102131.84;4975416;28;45295;-55
2022/04/16 07:53:54;;;;;;;;;47.25;38.75;;;;;13.47;61.17;102122.75;4975577;28;45453;-56
2022/04/16 07:56:20;;;;;;;;;42.50;36.00;;;;;13.46;60.57;102129.88;4974439;27;45682;-55
2022/04/16 07:58:46;;;;;;;;;41.25;33.50;;;;;13.50;60.88;102127.94;4975626;28;45473;-55
2022/04/16 08:01:11;;;;;;;;;35.50;33.75;;;;;13.43;60.08;102108.66;4975749;28;45410;-56
2022/04/16 08:03:37;;;;;;;;;40.25;35.00;;;;;13.48;60.30;102111.97;4976097;27;45220;-55
2022/04/16 08:06:03;;;;;;;;;43.25;36.00;;;;;13.51;59.93;102103.81;4975724;28;45248;-56
2022/04/16 08:08:29;;;;;;;;;36.50;31.50;;;;;13.68;60.29;102110.25;4973006;28;45268;-56
2022/04/16 08:10:54;;;;;;;;;43.00;35.50;;;;;13.77;59.71;102112.47;4973113;28;45427;-58
2022/04/16 08:13:20;;;;;;;;;38.00;35.00;;;;;13.87;59.98;102121.81;4974905;28;45390;-57
2022/04/16 08:15:46;;;;;;;;;41.25;36.00;;;;;13.98;59.27;102130.25;4973936;28;46880;-56
2022/04/16 08:18:12;;;;;;;;;40.00;35.25;;;;;14.00;59.56;102138.19;4977106;28;45467;-56
2022/04/16 08:20:38;;;;;;;;;43.50;35.75;;;;;14.06;58.98;102137.88;4975591;28;45436;-56
2022/04/16 08:23:06;;;;;;;;;42.00;35.75;;;;;14.09;59.46;102144.00;4973400;28;45551;-58
2022/04/16 08:27:59;;;;;;;;;39.00;33.25;;;;;14.16;59.33;102140.06;4956482;28;45236;-56
2022/04/16 08:30:25;;;;;;;;;38.25;35.00;;;;;14.15;58.76;102133.00;4954903;28;45439;-56
2022/04/16 08:32:51;;;;;;;;;38.00;34.75;;;;;14.32;58.81;102147.38;4956249;28;45403;-57
2022/04/16 08:35:17;;;;;;;;;46.50;37.75;;;;;14.45;58.22;102148.56;4954634;28;46293;-55
2022/04/16 08:37:43;;;;;;;;;34.25;34.00;;;;;14.56;57.57;102138.22;4955194;28;45370;-55
2022/04/16 08:40:10;;;;;;;;;51.50;37.00;;;;;14.72;57.58;102139.25;4958067;28;45766;-55
2022/04/16 08:42:37;;;;;;;;;40.50;33.75;;;;;14.97;57.28;102148.72;4975284;28;45291;-54
2022/04/16 08:45:06;;;;;;;;;37.75;34.25;;;;;15.14;56.53;102140.72;4974242;28;46602;-57
2022/04/16 08:47:32;;;;;;;;;40.75;35.75;;;;;15.12;55.92;102142.63;4974787;28;45413;-55
2022/04/16 08:49:59;;;;;;;;;40.00;36.25;;;;;15.13;55.83;102133.63;4974869;28;45448;-57
2022/04/16 08:52:29;;;;;;;;;39.50;34.25;;;;;15.47;55.92;102147.97;4975053;28;45507;-54
2022/04/16 08:54:55;;;;;;;;;45.00;34.50;;;;;15.71;55.72;102130.63;4972971;28;46598;-56
2022/04/16 08:57:20;;;;;;;;;45.33;34.00;;;;;16.08;55.12;102150.13;4973329;28;45522;-55
2022/04/16 08:59:53;;;;;;;;;26.67;24.00;;;;;16.30;54.05;102148.00;4974633;27;45548;-58
2022/04/16 09:02:24;;;;;;;;;32.00;31.00;;;;;16.61;53.41;102155.19;4973399;28;45380;-56
2022/04/16 09:05:08;;;;;;;;;41.00;33.67;;;;;16.87;52.00;102134.06;4974371;28;45722;-55
2022/04/16 09:07:51;;;;;;;;;37.00;32.67;;;;;17.21;51.54;102135.66;4974301;28;45419;-56
2022/04/16 09:10:17;;;;;;;;;36.67;33.33;;;;;17.48;50.58;102114.31;4974603;28;45386;-55
2022/04/16 09:12:44;;;;;;;;;40.67;34.33;;;;;17.95;50.98;102139.16;4972755;28;45477;-56
2022/04/16 09:15:12;;;;;;;;;32.33;30.33;;;;;18.27;48.09;102139.84;4974374;28;46559;-55
2022/04/16 09:17:42;;;;;;;;;38.00;34.00;;;;;18.55;49.13;102140.75;5035283;28;45401;-56
2022/04/16 09:20:13;;;;;;;;;33.33;30.00;;;;;18.84;46.22;102131.63;5051748;27;45429;-56
2022/04/16 09:22:48;;;;;;;;;35.33;32.33;;;;;19.23;47.41;102132.63;4955571;28;45416;-55
2022/04/16 09:25:19;;;;;;;;;41.33;32.00;;;;;19.54;45.89;102120.59;4974433;28;46248;-55
2022/04/16 09:27:50;;;;;;;;;36.67;30.00;;;;;19.89;45.93;102114.56;4974507;28;45353;-59
2022/04/16 09:30:27;;;;;;;;;36.67;32.00;;;;;20.15;43.77;102110.00;4973127;28;45282;-57
2022/04/16 09:32:55;;;;;;;;;32.00;27.33;;;;;20.46;43.07;102117.66;4974451;28;45440;-58
2022/04/16 09:35:39;;;;;;;;;30.67;30.00;;;;;20.60;41.89;102120.19;4973548;28;46144;-54
2022/04/16 09:38:08;;;;;;;;;23.67;20.00;;;;;20.76;41.71;102116.34;4963690;28;45432;-57
2022/04/16 09:40:35;;;;;;;;;24.33;23.33;;;;;20.94;41.39;102114.94;4955101;28;45283;-55
2022/04/16 09:43:06;;;;;;;;;27.00;24.67;;;;;21.14;41.99;102117.00;4954007;28;45338;-56
2022/04/16 09:45:32;;;;;;;;;30.33;28.67;;;;;21.33;41.42;102110.22;4955010;28;45481;-55
2022/04/16 09:48:00;;;;;;;;;28.00;25.67;;;;;21.37;39.24;102106.31;4955293;28;45453;-55
2022/04/16 09:50:32;;;;;;;;;26.67;24.00;;;;;21.44;40.90;102108.38;4955483;28;45358;-56
2022/04/16 09:53:02;;;;;;;;;27.00;22.00;;;;;21.49;40.49;102110.75;4954161;28;45466;-55
2022/04/16 09:55:29;;;;;;;;;28.33;24.67;;;;;21.65;39.73;102102.28;4972259;28;45409;-54
2022/04/16 09:58:03;;;;;;;;;24.33;24.00;;;;;21.61;40.39;102088.09;4973023;28;45354;-55
2022/04/16 10:00:31;;;;;;;;;27.67;25.67;;;;;21.55;39.35;102090.47;4962457;28;45421;-56
2022/04/16 10:02:59;;;;;;;;;23.67;23.67;;;;;21.60;39.81;102083.69;4974294;28;45227;-56
2022/04/16 10:05:25;;;;;;;;;30.33;26.00;;;;;21.73;38.46;102091.69;4974020;28;46234;-56
2022/04/16 10:07:55;;;;;;;;;20.00;17.67;;;;;21.65;39.19;102092.31;4972992;28;45216;-57
2022/04/16 10:10:55;;;;;;;;;26.50;22.50;;;;;21.48;38.47;102092.75;4973628;28;45393;-55
2022/04/16 10:13:15;;;;;;;;;28.00;24.33;;;;;21.16;40.15;102106.94;4972127;28;45312;-56
2022/04/16 10:15:46;;;;;;;;;28.00;24.00;;;;;21.03;39.33;102106.16;4973598;28;46379;-57
2022/04/16 10:18:12;;;;;;;;;29.00;25.33;;;;;20.58;40.07;102087.00;5038209;28;45470;-56
2022/04/16 10:20:49;;;;;;;;;22.00;19.33;;;;;20.40;40.30;102112.66;4974086;28;45455;-58
2022/04/16 10:23:30;;;;;;;;;24.67;22.00;;;;;20.12;41.52;102094.03;4973925;28;45473;-57
2022/04/16 10:26:10;;;;;;;;;20.33;18.00;;;;;19.94;40.94;102124.09;4972260;28;46704;-55
2022/04/16 10:28:49;;;;;;;;;18.00;18.00;;;;;19.62;40.59;102095.78;4973449;28;45516;-56
2022/04/16 10:31:22;;;;;;;;;20.67;19.00;;;;;19.50;41.12;102097.47;4972411;28;45683;-55
2022/04/16 10:33:57;;;;;;;;;20.00;16.67;;;;;19.50;41.81;102107.41;4973762;28;45332;-56
2022/04/16 10:36:39;;;;;;;;;21.00;20.00;;;;;19.40;41.17;102117.97;4973346;28;46059;-56
2022/04/16 10:39:15;;;;;;;;;23.00;23.00;;;;;19.26;41.69;102100.03;4973933;28;45435;-55
2022/04/16 10:42:01;;;;;;;;;19.33;18.33;;;;;19.22;41.79;102094.97;4972215;28;45422;-57
2022/04/16 10:44:29;;;;;;;;;18.00;17.67;;;;;19.08;41.84;102088.69;4973664;28;45320;-58
2022/04/16 10:46:58;;;;;;;;;21.00;18.33;;;;;19.15;42.42;102102.63;4973011;28;46084;-57
2022/04/16 10:49:25;;;;;;;;;22.33;22.00;;;;;19.15;42.79;102097.25;4975007;28;45830;-58
2022/04/16 10:51:52;;;;;;;;;26.33;19.67;;;;;19.11;43.39;102079.53;4974930;28;45502;-56
2022/04/16 10:54:32;;;;;;;;;27.00;20.50;;;;;19.18;43.30;102091.63;4976474;28;45318;-55
2022/04/16 10:56:59;;;;;;;;;20.33;19.33;;;;;19.25;42.19;102095.63;4974511;28;45446;-56
2022/04/16 10:59:42;;;;;;;;;18.67;15.67;;;;;19.29;42.21;102094.47;4975519;28;45542;-56
2022/04/16 11:02:28;;;;;;;;;19.33;16.67;;;;;19.34;42.26;102094.13;4976089;28;45358;-56
2022/04/16 11:05:03;;;;;;;;;24.33;23.00;;;;;19.40;42.27;102097.28;4974674;28;45336;-57
2022/04/16 11:07:30;;;;;;;;;18.00;17.33;;;;;19.44;41.41;102098.78;4974524;28;47580;-56
2022/04/16 11:09:57;;;;;;;;;12.67;10.67;;;;;19.50;39.42;102096.63;4974144;27;45568;-56
2022/04/16 11:12:23;;;;;;;;;12.00;12.00;;;;;19.44;38.78;102082.59;4974441;28;45344;-57
2022/04/16 11:14:50;;;;;;;;;11.67;11.67;;;;;19.60;38.49;102092.34;4973837;28;45583;-56
2022/04/16 11:17:16;;;;;;;;;15.33;12.33;;;;;19.49;38.06;102089.50;5020699;27;45320;-58
2022/04/16 11:19:44;;;;;;;;;16.00;14.67;;;;;19.47;37.23;102086.06;5077881;28;45450;-57
2022/04/16 11:22:11;;;;;;;;;15.00;11.00;;;;;19.55;37.19;102087.28;5078930;27;45321;-57
2022/04/16 11:24:37;;;;;;;;;13.00;11.67;;;;;19.49;38.63;102078.72;5079049;27;45558;-56
2022/04/16 11:35:15;;;;;;;;;16.33;16.33;;;;;19.93;38.66;102079.16;4976429;28;45310;-57